Time;durP1;ratioP1;P1;durP2;ratioP2;P2;SDS_P1;SDS_P2;PMS_P1;PMS_P2;Temp;Humidity;BMP_temperature;BMP_pressure;BME280_temperature;BME280_humidity;BME280_pressure;Samples;Min_cycle;Max_cycle;Signal;HPM_P1;HPM_P2
2022/03/06 00:02:10;;;;;;;;;98.33;82.00;;;;;8.28;71.86;101371.22;5040231;28;45570;-80
2022/03/06 00:04:36;;;;;;;;;91.00;73.00;;;;;8.23;71.46;101368.47;5058029;28;45376;-80
2022/03/06 00:07:02;;;;;;;;;98.00;76.00;;;;;8.17;71.74;101367.41;5058592;28;45327;-81
2022/03/06 00:09:27;;;;;;;;;90.33;75.33;;;;;8.15;71.27;101361.25;5059046;28;45343;-79
2022/03/06 00:11:53;;;;;;;;;95.67;79.00;;;;;8.20;72.24;101380.66;5058969;28;45212;-79
2022/03/06 00:14:19;;;;;;;;;94.00;82.33;;;;;8.16;70.88;101376.13;5058760;28;45253;-79
2022/03/06 00:16:45;;;;;;;;;95.00;77.33;;;;;8.08;71.55;101370.69;5058400;28;45470;-80
2022/03/06 00:19:11;;;;;;;;;92.67;70.00;;;;;8.11;71.15;101393.50;5058199;28;45299;-75
2022/03/06 00:21:37;;;;;;;;;96.33;79.67;;;;;8.05;70.63;101388.97;5058361;28;45209;-79
2022/03/06 00:24:03;;;;;;;;;94.67;77.00;;;;;7.99;70.38;101392.31;5058020;28;46201;-80
2022/03/06 00:26:29;;;;;;;;;88.33;70.33;;;;;7.96;71.00;101396.59;5058076;28;45404;-79
2022/03/06 00:28:54;;;;;;;;;95.33;77.67;;;;;7.87;70.74;101384.09;5058025;28;45441;-80
2022/03/06 00:31:22;;;;;;;;;90.33;76.33;;;;;7.92;71.21;101400.88;5058138;28;45352;-80
2022/03/06 00:33:48;;;;;;;;;88.67;70.67;;;;;7.82;70.04;101384.81;5057624;28;47221;-80
2022/03/06 00:36:13;;;;;;;;;91.00;74.00;;;;;7.87;70.08;101397.22;5058061;28;45315;-77
2022/03/06 00:38:39;;;;;;;;;87.33;72.00;;;;;7.88;70.29;101398.09;5058896;28;45209;-80
2022/03/06 00:41:04;;;;;;;;;88.33;71.33;;;;;7.84;69.90;101393.63;5057697;28;45411;-81
2022/03/06 00:43:30;;;;;;;;;82.67;65.33;;;;;7.86;69.92;101394.53;5058050;28;46200;-78
2022/03/06 00:45:55;;;;;;;;;91.67;74.67;;;;;7.88;69.18;101398.09;5058511;28;45372;-81
2022/03/06 00:48:20;;;;;;;;;87.67;72.33;;;;;7.83;69.37;101389.22;5058122;28;45391;-81
2022/03/06 00:50:46;;;;;;;;;90.67;73.67;;;;;7.82;69.29;101387.44;5057736;28;45335;-80
2022/03/06 00:53:11;;;;;;;;;87.67;64.33;;;;;7.81;68.68;101394.41;5057543;28;46186;-79
2022/03/06 00:55:37;;;;;;;;;92.67;71.33;;;;;7.76;68.64;101382.91;5057312;28;45267;-78
2022/03/06 00:58:05;;;;;;;;;93.00;72.00;;;;;7.72;68.60;101383.63;5056912;28;45478;-77
2022/03/06 01:00:40;;;;;;;;;91.33;69.00;;;;;7.60;68.53;101368.44;5057440;28;45414;-78
2022/03/06 01:03:08;;;;;;;;;97.00;75.67;;;;;7.74;68.41;101402.06;5057132;28;45928;-81
2022/03/06 01:05:34;;;;;;;;;83.00;65.33;;;;;7.65;67.82;101394.81;5056993;28;45403;-80
2022/03/06 01:08:00;;;;;;;;;89.00;71.00;;;;;7.64;67.96;101398.28;5057261;28;45407;-77
2022/03/06 01:10:26;;;;;;;;;90.00;68.00;;;;;7.64;67.62;101404.41;5057290;28;45339;-79
2022/03/06 01:12:52;;;;;;;;;91.00;75.33;;;;;7.54;67.93;101394.50;5057062;28;46164;-79
2022/03/06 01:15:17;;;;;;;;;106.00;96.75;;;;;7.53;67.41;101397.03;5057291;28;45606;-77
2022/03/06 01:17:43;;;;;;;;;112.50;101.25;;;;;7.55;66.76;101412.00;5039177;28;45654;-77
2022/03/06 01:20:09;;;;;;;;;137.75;126.75;;;;;7.47;66.90;101403.00;5057230;28;45350;-77
2022/03/06 01:22:34;;;;;;;;;158.50;139.25;;;;;7.46;66.91;101401.25;5056942;28;47229;-78
2022/03/06 01:25:00;;;;;;;;;142.25;122.50;;;;;7.40;65.94;101401.03;5056990;28;45490;-77
2022/03/06 01:27:25;;;;;;;;;169.25;141.75;;;;;7.40;66.17;101411.53;5056991;28;45330;-77
2022/03/06 01:29:50;;;;;;;;;125.50;102.75;;;;;7.30;65.72;101405.09;5056998;28;45629;-79
2022/03/06 01:32:16;;;;;;;;;101.75;87.50;;;;;7.21;65.82;101393.44;5056788;28;46480;-79
2022/03/06 01:34:42;;;;;;;;;92.67;73.00;;;;;7.28;65.92;101406.78;5056638;28;45411;-77
2022/03/06 01:37:07;;;;;;;;;88.00;65.67;;;;;7.24;66.40;101404.91;5056914;28;45398;-77
2022/03/06 01:39:32;;;;;;;;;92.00;71.67;;;;;7.18;64.98;101398.59;5057089;28;45454;-80
2022/03/06 01:41:58;;;;;;;;;88.00;68.00;;;;;7.13;64.95;101401.06;5056431;28;46711;-78
2022/03/06 01:44:23;;;;;;;;;88.33;70.33;;;;;7.07;65.61;101404.38;5057042;28;45919;-77
2022/03/06 01:46:50;;;;;;;;;87.33;68.67;;;;;7.03;65.97;101404.22;5056627;28;45479;-79
2022/03/06 01:49:16;;;;;;;;;84.00;68.67;;;;;6.99;65.79;101397.13;5056765;28;45469;-80
2022/03/06 01:51:42;;;;;;;;;84.67;65.00;;;;;6.97;65.65;101397.03;5056403;28;45230;-79
2022/03/06 01:54:09;;;;;;;;;82.00;63.00;;;;;6.92;64.52;101398.66;5056443;28;45481;-77
2022/03/06 01:56:35;;;;;;;;;83.67;65.33;;;;;6.91;64.49;101409.97;5056458;28;45407;-76
2022/03/06 01:59:02;;;;;;;;;81.33;66.00;;;;;6.81;64.92;101402.66;5056454;28;45250;-78
2022/03/06 02:01:29;;;;;;;;;87.00;64.67;;;;;6.81;65.36;101400.91;5056309;28;46386;-75
2022/03/06 02:03:55;;;;;;;;;89.00;66.33;;;;;6.77;64.31;101405.97;5056793;28;45411;-79
2022/03/06 02:06:25;;;;;;;;;84.00;66.67;;;;;6.70;64.05;101412.75;5057374;28;45497;-80
2022/03/06 02:08:50;;;;;;;;;86.00;68.00;;;;;6.65;64.30;101410.81;5057606;28;45303;-77
2022/03/06 02:11:17;;;;;;;;;84.00;66.00;;;;;6.57;64.44;101408.81;5056622;28;47317;-79
2022/03/06 02:13:44;;;;;;;;;85.00;65.00;;;;;6.57;64.83;101413.16;5057177;28;45428;-79
2022/03/06 02:16:10;;;;;;;;;83.33;64.33;;;;;6.52;64.58;101402.56;5057097;28;45333;-80
2022/03/06 02:18:36;;;;;;;;;78.33;60.00;;;;;6.48;64.60;101412.84;5056684;28;45522;-80
2022/03/06 02:21:13;;;;;;;;;89.33;66.00;;;;;6.42;64.45;101400.47;5056056;28;45398;-77
2022/03/06 02:23:39;;;;;;;;;81.00;65.00;;;;;6.37;64.96;101393.28;5056247;28;45299;-78
2022/03/06 02:26:06;;;;;;;;;85.67;68.00;;;;;6.40;64.81;101403.84;5054915;28;45526;-79
2022/03/06 02:28:31;;;;;;;;;82.67;64.67;;;;;6.32;64.34;101393.09;5056321;28;45471;-76
2022/03/06 02:30:57;;;;;;;;;81.67;65.00;;;;;6.36;64.39;101397.63;5055897;28;46492;-76
2022/03/06 02:33:23;;;;;;;;;83.33;67.00;;;;;6.29;64.51;101395.63;5056542;28;45253;-78
2022/03/06 02:35:49;;;;;;;;;85.00;66.33;;;;;6.25;64.61;101407.72;5056702;28;45466;-81
2022/03/06 02:38:15;;;;;;;;;85.67;66.00;;;;;6.20;64.56;101403.13;5057129;28;45181;-81
2022/03/06 02:40:43;;;;;;;;;84.33;67.67;;;;;6.06;64.66;101386.97;5056828;28;46278;-80
2022/03/06 02:43:10;;;;;;;;;86.00;65.00;;;;;6.12;64.61;101402.84;5055890;28;45383;-81
2022/03/06 02:45:39;;;;;;;;;86.67;65.00;;;;;6.13;65.28;101402.03;5056093;28;45434;-80
2022/03/06 02:48:05;;;;;;;;;85.67;66.33;;;;;6.12;64.77;101394.13;5056004;28;45461;-80
2022/03/06 02:50:34;;;;;;;;;80.67;65.00;;;;;6.04;65.03;101396.47;5055675;28;45622;-80
2022/03/06 02:53:02;;;;;;;;;78.67;63.33;;;;;5.99;65.31;101387.56;5055500;28;45434;-81
2022/03/06 02:55:28;;;;;;;;;87.67;67.67;;;;;6.03;65.02;101397.28;5055770;28;45550;-79
2022/03/06 02:57:54;;;;;;;;;88.67;69.00;;;;;6.04;64.80;101404.31;5055917;28;45225;-80
2022/03/06 03:00:22;;;;;;;;;79.33;63.33;;;;;5.98;64.92;101399.75;5055468;28;46178;-80
2022/03/06 03:02:48;;;;;;;;;82.00;63.00;;;;;5.92;64.45;101406.47;5055628;28;45293;-79
2022/03/06 03:05:15;;;;;;;;;84.33;66.67;;;;;5.84;64.88;101406.16;5055801;28;45406;-80
2022/03/06 03:07:42;;;;;;;;;82.00;65.67;;;;;5.83;64.71;101407.00;5055850;28;45366;-78
2022/03/06 03:10:10;;;;;;;;;77.00;61.00;;;;;5.73;64.21;101397.03;5055762;28;46187;-80
2022/03/06 03:12:35;;;;;;;;;85.33;67.00;;;;;5.72;64.98;101401.38;5055674;28;45392;-79
2022/03/06 03:15:03;;;;;;;;;84.00;67.00;;;;;5.71;64.63;101404.81;5055718;28;45410;-75
2022/03/06 03:17:28;;;;;;;;;85.33;64.00;;;;;5.69;64.65;101405.59;5055790;28;45493;-79
2022/03/06 03:19:53;;;;;;;;;88.33;68.00;;;;;5.67;64.23;101405.53;5055119;28;45832;-79
2022/03/06 03:22:19;;;;;;;;;84.33;61.33;;;;;5.62;64.53;101399.25;5039525;28;45447;-76
2022/03/06 03:24:44;;;;;;;;;85.67;65.33;;;;;5.64;64.77;101405.41;5059041;28;45784;-78
2022/03/06 03:27:10;;;;;;;;;87.33;67.00;;;;;5.61;64.63;101405.31;5059076;28;45351;-80
2022/03/06 03:29:35;;;;;;;;;84.33;67.00;;;;;5.61;64.55;101402.69;5058976;28;47122;-80
2022/03/06 03:32:00;;;;;;;;;87.33;68.67;;;;;5.39;64.81;101379.16;5058947;28;45358;-80
2022/03/06 03:34:26;;;;;;;;;89.00;67.67;;;;;5.53;65.27;101411.97;5058681;28;45713;-78
2022/03/06 03:36:51;;;;;;;;;83.00;65.00;;;;;5.50;64.98;101418.81;5058971;28;44830;-79
2022/03/06 03:39:17;;;;;;;;;86.33;67.67;;;;;5.47;65.30;101413.44;5058565;28;46188;-78
2022/03/06 03:41:42;;;;;;;;;84.00;65.00;;;;;5.42;65.21;101410.66;5058538;28;45454;-81
2022/03/06 03:44:07;;;;;;;;;87.33;67.67;;;;;5.38;65.41;101417.47;5058538;28;45733;-80
2022/03/06 03:46:33;;;;;;;;;83.75;67.00;;;;;5.31;65.57;101414.59;5058701;28;45429;-75
2022/03/06 03:48:59;;;;;;;;;83.67;65.33;;;;;5.30;65.44;101418.88;5040175;28;46098;-81
2022/03/06 03:51:24;;;;;;;;;88.33;65.67;;;;;5.19;65.48;101399.28;5058342;28;45370;-76
2022/03/06 03:53:49;;;;;;;;;86.00;65.00;;;;;5.28;65.72;101424.88;5058724;28;45415;-80
2022/03/06 03:56:15;;;;;;;;;84.00;65.00;;;;;5.19;65.73;101422.81;5058554;28;45530;-79
2022/03/06 03:58:40;;;;;;;;;81.67;65.33;;;;;5.19;65.95;101427.13;5058754;28;45330;-80
2022/03/06 04:01:06;;;;;;;;;85.00;67.25;;;;;5.17;66.15;101424.47;5058309;28;45549;-76
2022/03/06 04:03:31;;;;;;;;;89.33;66.67;;;;;5.15;66.38;101427.03;5058363;28;45363;-80
2022/03/06 04:05:57;;;;;;;;;88.33;67.00;;;;;5.14;66.38;101434.81;5040151;28;45414;-76
2022/03/06 04:08:22;;;;;;;;;81.67;66.33;;;;;5.12;66.26;101439.06;5057970;28;45470;-78
2022/03/06 04:10:47;;;;;;;;;91.33;69.00;;;;;4.99;66.59;101426.34;5058123;28;45306;-78
2022/03/06 04:13:13;;;;;;;;;82.33;65.33;;;;;4.95;66.21;101409.66;5058282;28;45284;-80
2022/03/06 04:15:38;;;;;;;;;80.00;64.00;;;;;5.08;66.56;101445.88;5058199;28;45273;-77
2022/03/06 04:18:04;;;;;;;;;88.25;68.50;;;;;4.95;66.84;101433.16;5057886;28;47155;-81
2022/03/06 04:20:30;;;;;;;;;82.75;66.50;;;;;4.99;67.04;101442.88;5057852;28;45393;-77
2022/03/06 04:22:57;;;;;;;;;87.33;66.33;;;;;4.95;67.46;101429.66;5057996;28;45456;-77
2022/03/06 04:25:22;;;;;;;;;85.00;64.75;;;;;4.89;66.85;101434.63;5058393;28;45409;-75
2022/03/06 04:27:48;;;;;;;;;84.75;63.25;;;;;4.92;66.89;101445.19;5058275;28;46274;-79
2022/03/06 04:30:13;;;;;;;;;82.67;67.00;;;;;4.91;67.20;101453.84;5058540;28;45335;-77
2022/03/06 04:32:39;;;;;;;;;82.00;66.00;;;;;4.88;67.29;101453.72;5039184;28;45281;-80
2022/03/06 04:35:05;;;;;;;;;78.75;60.50;;;;;4.77;67.54;101440.22;5058361;28;45340;-79
2022/03/06 04:37:32;;;;;;;;;87.75;67.00;;;;;4.77;66.87;101448.94;5039691;28;47161;-80
2022/03/06 04:39:57;;;;;;;;;87.75;67.00;;;;;4.84;67.67;101457.94;5057668;28;45509;-79
2022/03/06 04:42:23;;;;;;;;;88.25;68.50;;;;;4.84;67.45;101457.94;5057977;28;45351;-80
2022/03/06 04:44:48;;;;;;;;;86.25;66.25;;;;;4.82;67.51;101464.78;5057970;28;45664;-78
2022/03/06 04:47:14;;;;;;;;;84.50;67.75;;;;;4.80;67.65;101462.13;5057936;28;46552;-80
2022/03/06 04:49:39;;;;;;;;;71.67;58.67;;;;;4.81;67.47;101465.63;5057570;28;45337;-80
2022/03/06 04:52:05;;;;;;;;;85.00;67.00;;;;;4.78;67.64;101476.81;5057646;28;45322;-78
2022/03/06 04:54:30;;;;;;;;;88.25;66.25;;;;;4.78;67.59;101473.31;5057648;28;45406;-77
2022/03/06 04:56:56;;;;;;;;;89.00;68.50;;;;;4.72;67.75;101467.84;5056919;28;46186;-77
2022/03/06 04:59:22;;;;;;;;;88.50;67.50;;;;;4.52;68.04;101439.19;5057474;28;45409;-77
2022/03/06 05:01:47;;;;;;;;;84.00;64.50;;;;;4.65;67.92;101473.59;5057330;28;45286;-81
2022/03/06 05:04:12;;;;;;;;;71.00;58.67;;;;;4.64;67.59;101472.72;5057712;28;45395;-80
2022/03/06 05:06:38;;;;;;;;;89.75;67.50;;;;;4.62;68.09;101474.38;5056974;28;45487;-80
2022/03/06 05:09:03;;;;;;;;;65.33;56.00;;;;;4.58;67.56;101472.47;5057175;28;45404;-79
2022/03/06 05:11:29;;;;;;;;;87.50;66.00;;;;;4.53;68.68;101468.75;5055937;28;45521;-79
2022/03/06 05:13:54;;;;;;;;;90.00;69.25;;;;;4.57;68.02;101479.41;5039343;28;45482;-78
2022/03/06 05:16:20;;;;;;;;;88.00;67.00;;;;;4.51;68.38;101465.19;5057066;28;46117;-79
2022/03/06 05:18:46;;;;;;;;;93.00;71.75;;;;;4.52;68.26;101478.31;5057020;28;45435;-80
2022/03/06 05:21:11;;;;;;;;;83.75;66.75;;;;;4.55;68.35;101480.16;5057224;28;45469;-81
2022/03/06 05:23:36;;;;;;;;;85.75;64.50;;;;;4.54;68.37;101491.41;5057196;28;45415;-76
2022/03/06 05:26:02;;;;;;;;;90.25;66.25;;;;;4.50;68.46;101490.41;5056871;28;46992;-80
2022/03/06 05:28:28;;;;;;;;;85.75;65.75;;;;;4.46;68.40;101487.56;5056684;28;45339;-79
2022/03/06 05:30:53;;;;;;;;;84.50;68.00;;;;;4.42;68.20;101486.56;5056902;28;45472;-78
2022/03/06 05:33:19;;;;;;;;;85.50;68.25;;;;;4.47;68.11;101484.16;5057003;28;45505;-81
2022/03/06 05:35:46;;;;;;;;;87.00;66.50;;;;;4.35;68.70;101471.47;5056788;28;45448;-77
2022/03/06 05:38:11;;;;;;;;;90.25;69.00;;;;;4.35;68.48;101487.09;5057144;28;45371;-77
2022/03/06 05:40:37;;;;;;;;;83.50;65.75;;;;;4.41;68.25;101486.50;5057248;28;45494;-80
2022/03/06 05:43:02;;;;;;;;;88.25;68.00;;;;;4.32;68.05;101486.97;5056898;28;45558;-78
2022/03/06 05:45:28;;;;;;;;;81.75;63.00;;;;;4.31;69.27;101494.75;5056527;28;46102;-77
2022/03/06 05:47:53;;;;;;;;;83.50;65.75;;;;;4.28;68.94;101492.88;5056711;28;45296;-78
2022/03/06 05:50:19;;;;;;;;;86.75;66.75;;;;;4.15;69.42;101483.59;5057600;28;45509;-77
2022/03/06 05:52:48;;;;;;;;;89.25;65.50;;;;;4.18;68.78;101498.50;5057062;28;45694;-77
2022/03/06 05:55:14;;;;;;;;;87.25;66.50;;;;;4.19;69.29;101490.78;5056091;28;46509;-78
2022/03/06 05:57:40;;;;;;;;;90.75;69.25;;;;;4.26;69.24;101492.81;5056549;28;45362;-77
2022/03/06 06:00:08;;;;;;;;;87.75;68.25;;;;;4.32;68.80;101502.63;5056814;28;45401;-76
2022/03/06 06:02:37;;;;;;;;;83.25;66.25;;;;;4.34;69.05;101507.91;5056776;28;45477;-80
2022/03/06 06:05:07;;;;;;;;;90.50;67.75;;;;;4.42;68.97;101503.94;5056062;28;46913;-77
2022/03/06 06:07:33;;;;;;;;;86.00;66.75;;;;;4.49;68.54;101511.22;5056363;28;45235;-79
2022/03/06 06:09:59;;;;;;;;;87.50;67.25;;;;;4.50;68.29;101497.34;5056472;28;45336;-76
2022/03/06 06:12:24;;;;;;;;;85.25;67.25;;;;;4.58;67.74;101506.41;5056732;28;45166;-78
2022/03/06 06:14:50;;;;;;;;;85.50;67.25;;;;;4.63;67.40;101514.41;5057033;28;45391;-79
2022/03/06 06:17:16;;;;;;;;;82.00;65.25;;;;;4.69;67.71;101517.31;5056390;28;45299;-80
2022/03/06 06:19:41;;;;;;;;;87.75;69.50;;;;;4.65;67.53;101513.66;5056518;28;45365;-81
2022/03/06 06:22:07;;;;;;;;;80.50;64.00;;;;;4.74;67.29;101518.38;5056556;28;45249;-78
2022/03/06 06:24:32;;;;;;;;;87.50;68.50;;;;;4.67;67.42;101521.56;5055920;28;46171;-78
2022/03/06 06:26:58;;;;;;;;;85.50;66.00;;;;;4.62;66.91;101507.41;5056274;28;45212;-75
2022/03/06 06:29:24;;;;;;;;;88.50;67.50;;;;;4.70;67.31;101516.47;5055929;28;45430;-77
2022/03/06 06:31:51;;;;;;;;;88.00;67.75;;;;;4.65;66.78;101511.03;5056276;28;45553;-79
2022/03/06 06:34:17;;;;;;;;;86.00;65.50;;;;;4.74;66.69;101519.25;5055891;28;46512;-78
2022/03/06 06:36:42;;;;;;;;;87.75;67.50;;;;;4.74;66.81;101521.88;5056112;28;45438;-80
2022/03/06 06:39:11;;;;;;;;;90.25;69.00;;;;;4.71;66.63;101521.75;5056164;28;45454;-77
2022/03/06 06:41:41;;;;;;;;;83.50;67.25;;;;;4.73;67.24;101527.03;5056043;28;45538;-77
2022/03/06 06:44:07;;;;;;;;;89.50;69.25;;;;;4.77;66.96;101537.69;5055729;28;46158;-78
2022/03/06 06:46:33;;;;;;;;;94.00;67.25;;;;;4.78;66.91;101539.47;5055764;28;45381;-78
2022/03/06 06:48:59;;;;;;;;;90.50;69.25;;;;;4.77;66.50;101542.91;5055979;28;45505;-74
2022/03/06 06:51:25;;;;;;;;;88.75;69.00;;;;;4.76;66.64;101545.47;5057827;28;45281;-78
2022/03/06 06:53:50;;;;;;;;;88.00;66.50;;;;;4.76;66.64;101543.75;5055715;28;47087;-81
2022/03/06 06:56:15;;;;;;;;;87.50;67.75;;;;;4.82;66.74;101548.31;5056060;28;45281;-78
2022/03/06 06:58:41;;;;;;;;;94.25;69.75;;;;;4.89;66.57;101554.72;5059564;28;45609;-76
2022/03/06 07:01:07;;;;;;;;;82.50;61.25;;;;;4.88;66.19;101551.19;5059504;28;45578;-77
2022/03/06 07:03:32;;;;;;;;;87.25;67.50;;;;;4.81;65.98;101547.44;5058987;28;46452;-78
2022/03/06 07:05:58;;;;;;;;;86.50;69.00;;;;;4.77;66.33;101548.13;5059141;28;45370;-79
2022/03/06 07:08:24;;;;;;;;;79.50;61.25;;;;;4.88;66.10;101565.97;5059176;28;45464;-78
2022/03/06 07:10:50;;;;;;;;;95.50;69.00;;;;;4.93;65.99;101567.94;5059140;28;45604;-74
2022/03/06 07:13:16;;;;;;;;;88.75;68.75;;;;;5.02;65.51;101562.22;5058929;28;46440;-78
2022/03/06 07:15:41;;;;;;;;;88.50;66.50;;;;;5.04;65.10;101577.16;5059190;28;45375;-78
2022/03/06 07:18:07;;;;;;;;;84.75;65.75;;;;;5.05;65.00;101572.81;5059039;28;45437;-78
2022/03/06 07:20:32;;;;;;;;;87.75;67.75;;;;;5.08;65.54;101568.63;5041115;28;45419;-77
2022/03/06 07:22:58;;;;;;;;;82.50;65.25;;;;;5.16;64.94;101571.56;5058997;28;46473;-78
2022/03/06 07:25:24;;;;;;;;;81.75;64.00;;;;;5.03;64.40;101535.31;5040767;28;45387;-76
2022/03/06 07:27:50;;;;;;;;;88.00;68.75;;;;;5.17;64.22;101569.84;5059606;28;45503;-79
2022/03/06 07:30:16;;;;;;;;;88.75;68.50;;;;;5.20;64.26;101573.47;5058921;28;45581;-78
2022/03/06 07:32:49;;;;;;;;;92.25;68.25;;;;;5.24;63.78;101587.56;5058429;28;47415;-73
2022/03/06 07:35:17;;;;;;;;;90.75;67.25;;;;;5.27;64.20;101585.97;5058680;28;45256;-73
2022/03/06 07:37:43;;;;;;;;;90.00;68.25;;;;;5.41;63.35;101600.50;5058987;28;45353;-76
2022/03/06 07:40:11;;;;;;;;;86.00;67.75;;;;;5.53;63.16;101586.16;5058933;28;45515;-76
2022/03/06 07:42:37;;;;;;;;;90.00;67.50;;;;;5.68;62.72;101590.31;5058296;28;46989;-76
2022/03/06 07:45:04;;;;;;;;;90.25;68.25;;;;;5.51;62.72;101580.88;5058486;28;45414;-80
2022/03/06 07:47:29;;;;;;;;;89.75;69.75;;;;;5.68;62.63;101602.50;5058791;28;45945;-78
2022/03/06 07:49:55;;;;;;;;;88.75;67.00;;;;;5.77;61.86;101596.72;5058819;28;45401;-75
2022/03/06 07:52:20;;;;;;;;;88.50;67.50;;;;;5.86;61.69;101600.63;5058357;28;46113;-76
2022/03/06 07:54:45;;;;;;;;;80.75;64.75;;;;;5.97;61.92;101603.69;5057927;28;45381;-79
2022/03/06 07:57:11;;;;;;;;;89.00;68.25;;;;;6.09;61.56;101608.50;5058631;28;45337;-79
2022/03/06 07:59:36;;;;;;;;;89.25;68.25;;;;;6.09;61.03;101593.69;5058387;28;45364;-76
2022/03/06 08:02:02;;;;;;;;;90.67;69.00;;;;;6.21;60.91;101611.59;5058451;28;46024;-74
2022/03/06 08:04:28;;;;;;;;;86.50;68.00;;;;;6.19;60.60;101603.69;5058500;28;45255;-78
2022/03/06 08:06:53;;;;;;;;;91.00;68.33;;;;;6.21;60.31;101607.25;5058308;28;45306;-80
2022/03/06 08:09:19;;;;;;;;;73.00;59.33;;;;;6.18;60.03;101596.69;5057159;28;45383;-76
2022/03/06 08:11:45;;;;;;;;;84.33;66.33;;;;;6.24;59.99;101607.41;5057817;28;45987;-75
2022/03/06 08:14:10;;;;;;;;;86.00;66.67;;;;;6.31;60.16;101618.06;5058504;28;45287;-80
2022/03/06 08:16:37;;;;;;;;;83.67;66.00;;;;;6.42;59.56;101630.75;5058066;28;45285;-75
2022/03/06 08:19:02;;;;;;;;;88.67;69.67;;;;;6.47;59.88;101633.53;5057987;28;45501;-74
2022/03/06 08:21:28;;;;;;;;;81.33;63.00;;;;;6.56;59.42;101623.41;5057703;28;45461;-78
2022/03/06 08:23:54;;;;;;;;;87.00;66.33;;;;;6.60;58.92;101625.31;5057957;28;45496;-78
2022/03/06 08:26:19;;;;;;;;;85.67;66.00;;;;;6.73;58.36;101629.28;5057936;28;45313;-78
2022/03/06 08:28:45;;;;;;;;;79.33;61.67;;;;;6.81;58.49;101635.72;5057715;28;45433;-75
2022/03/06 08:31:10;;;;;;;;;85.33;66.00;;;;;6.86;57.41;101632.41;5057671;28;47006;-74
2022/03/06 08:33:36;;;;;;;;;82.00;65.33;;;;;6.88;57.54;101642.03;5057804;28;45388;-75
2022/03/06 08:36:02;;;;;;;;;79.00;63.00;;;;;6.75;57.25;101628.50;5057814;28;45405;-76
2022/03/06 08:38:27;;;;;;;;;81.33;63.00;;;;;6.85;56.74;101635.88;5058024;28;45470;-80
2022/03/06 08:40:53;;;;;;;;;85.00;63.33;;;;;6.85;56.12;101641.09;5057540;28;45231;-77
2022/03/06 08:43:18;;;;;;;;;82.67;65.00;;;;;6.88;56.50;101626.31;5057289;28;45351;-79
2022/03/06 08:45:45;;;;;;;;;78.67;64.00;;;;;6.93;56.99;101635.25;5039638;28;45643;-76
2022/03/06 08:48:10;;;;;;;;;82.67;63.67;;;;;6.99;55.63;101639.00;5057772;28;45458;-76
2022/03/06 08:50:36;;;;;;;;;83.67;61.67;;;;;6.93;55.69;101609.06;5057281;28;46313;-77
2022/03/06 08:53:01;;;;;;;;;79.33;61.33;;;;;7.13;55.22;101643.00;5057553;28;45398;-78
2022/03/06 08:55:27;;;;;;;;;82.00;61.67;;;;;7.19;55.35;101637.09;5057337;28;45399;-74
2022/03/06 08:57:52;;;;;;;;;75.33;62.00;;;;;7.29;56.01;101644.44;5057449;28;45319;-76
2022/03/06 09:00:18;;;;;;;;;82.33;63.33;;;;;7.39;55.00;101656.13;5057301;28;46121;-76
2022/03/06 09:02:43;;;;;;;;;77.33;61.33;;;;;7.46;54.30;101645.03;5057438;28;45539;-80
2022/03/06 09:05:09;;;;;;;;;80.67;59.67;;;;;7.50;53.23;101646.91;5057256;28;45568;-76
2022/03/06 09:07:34;;;;;;;;;76.33;58.33;;;;;7.63;53.22;101650.81;5057258;28;45413;-75
2022/03/06 09:10:00;;;;;;;;;76.33;60.67;;;;;8.06;52.13;101649.63;5056914;28;47060;-76
2022/03/06 09:12:26;;;;;;;;;66.33;55.33;;;;;11.74;46.30;101638.63;5057283;28;45312;-77
2022/03/06 09:14:53;;;;;;;;;75.67;59.33;;;;;15.61;37.91;101641.41;5057079;28;45292;-76
2022/03/06 09:17:19;;;;;;;;;70.33;56.00;;;;;18.20;32.96;101630.59;5057274;28;45272;-79
2022/03/06 09:19:44;;;;;;;;;71.50;57.50;;;;;19.63;30.11;101635.94;5056419;28;46805;-75
2022/03/06 09:22:09;;;;;;;;;68.75;51.00;;;;;18.35;30.51;101632.25;5056689;28;45331;-80
2022/03/06 09:24:35;;;;;;;;;63.25;50.50;;;;;16.90;32.18;101642.13;5057213;28;45458;-77
2022/03/06 09:27:00;;;;;;;;;62.25;51.25;;;;;16.05;33.89;101634.34;5056848;28;45319;-80
2022/03/06 09:29:27;;;;;;;;;58.00;47.00;;;;;15.57;34.44;101631.63;5056303;28;46566;-77
2022/03/06 09:31:53;;;;;;;;;60.50;49.25;;;;;15.83;34.18;101634.34;5056632;28;45395;-79
2022/03/06 09:34:18;;;;;;;;;57.25;47.00;;;;;17.73;31.20;101633.69;5057127;28;45288;-77
2022/03/06 09:36:43;;;;;;;;;59.50;47.75;;;;;19.53;28.71;101637.84;5057299;28;45533;-76
2022/03/06 09:39:09;;;;;;;;;57.25;45.25;;;;;22.31;25.42;101632.09;5056923;28;45437;-79
2022/03/06 09:41:40;;;;;;;;;57.00;47.50;;;;;24.01;23.38;101644.03;5056987;28;45939;-78
2022/03/06 09:44:12;;;;;;;;;54.50;45.50;;;;;24.87;21.96;101646.38;5056580;28;45359;-77
2022/03/06 09:46:39;;;;;;;;;56.75;45.00;;;;;26.01;20.63;101640.94;5056648;28;45533;-77
2022/03/06 09:49:06;;;;;;;;;53.50;44.00;;;;;26.33;20.13;101639.53;5056762;28;46447;-79
2022/03/06 09:51:40;;;;;;;;;52.00;42.25;;;;;27.16;20.03;101637.56;5056938;28;45417;-77
2022/03/06 09:54:08;;;;;;;;;55.50;43.75;;;;;29.07;17.97;101652.19;5056235;28;45383;-77
2022/03/06 09:56:33;;;;;;;;;58.50;46.00;;;;;30.46;16.15;101651.38;5056136;28;45469;-77
2022/03/06 09:59:00;;;;;;;;;36.00;34.33;;;;;31.46;15.82;101647.72;5056305;28;46137;-79
2022/03/06 10:01:26;;;;;;;;;50.67;41.00;;;;;32.34;14.53;101645.44;5056225;28;45343;-78
2022/03/06 10:03:51;;;;;;;;;48.67;41.33;;;;;33.01;13.72;101656.16;5056528;28;45338;-76
2022/03/06 10:06:17;;;;;;;;;43.33;38.00;;;;;33.77;14.16;101645.03;5056517;28;45467;-74
2022/03/06 10:08:42;;;;;;;;;52.00;39.00;;;;;34.34;12.96;101647.03;5056360;28;47161;-74
2022/03/06 10:11:10;;;;;;;;;45.33;38.33;;;;;34.85;12.36;101642.06;5056277;28;45362;-76
2022/03/06 10:13:38;;;;;;;;;40.00;35.33;;;;;35.25;11.70;101647.03;5056598;28;45426;-79
2022/03/06 10:16:15;;;;;;;;;44.67;38.00;;;;;35.70;12.14;101644.25;5056684;28;45393;-76
2022/03/06 10:18:52;;;;;;;;;46.25;39.25;;;;;36.07;11.70;101641.13;5056024;28;46328;-79
2022/03/06 10:21:26;;;;;;;;;49.50;40.00;;;;;36.52;10.79;101647.28;5056061;28;45418;-76
2022/03/06 10:23:59;;;;;;;;;40.75;35.75;;;;;36.65;10.47;101636.94;5055986;28;45237;-77
2022/03/06 10:26:30;;;;;;;;;41.75;37.00;;;;;36.79;10.52;101636.59;5056190;28;45289;-74
2022/03/06 10:28:56;;;;;;;;;46.50;38.00;;;;;37.13;10.23;101647.28;5055768;28;46910;-78
2022/03/06 10:31:22;;;;;;;;;41.25;34.50;;;;;37.68;10.00;101642.25;5054583;28;45417;-74
2022/03/06 10:34:05;;;;;;;;;38.25;34.25;;;;;37.92;10.15;101645.50;5056023;28;45358;-76
2022/03/06 10:36:40;;;;;;;;;41.25;35.50;;;;;38.31;9.85;101629.00;5055780;28;45387;-77
2022/03/06 10:39:19;;;;;;;;;33.80;31.40;;;;;38.08;9.11;101628.41;5055391;28;45479;-77
2022/03/06 10:41:50;;;;;;;;;43.20;36.60;;;;;38.11;9.07;101625.38;5055513;28;45186;-77
2022/03/06 10:44:17;;;;;;;;;35.20;32.60;;;;;37.96;9.22;101628.69;5055640;28;45387;-77
2022/03/06 10:46:58;;;;;;;;;35.80;33.00;;;;;37.70;7.76;101636.63;5055998;28;45472;-78
2022/03/06 10:49:23;;;;;;;;;30.60;29.40;;;;;37.74;9.83;101627.06;5055411;28;45692;-75
2022/03/06 10:51:51;;;;;;;;;23.50;23.50;;;;;37.46;8.47;101632.41;5055831;28;45447;-78
2022/03/06 10:54:18;;;;;;;;;29.20;27.80;;;;;37.49;8.63;101633.97;5055778;28;45465;-77
2022/03/06 10:56:50;;;;;;;;;27.80;27.20;;;;;37.51;9.70;101620.97;5055882;28;45432;-76
2022/03/06 10:59:26;;;;;;;;;31.20;29.60;;;;;37.36;8.28;101631.50;5055759;28;47148;-78
2022/03/06 11:01:52;;;;;;;;;28.00;25.40;;;;;37.02;8.83;101633.66;5056114;28;45450;-78
2022/03/06 11:04:19;;;;;;;;;32.00;29.50;;;;;36.61;8.64;101634.63;5055907;28;45371;-77
2022/03/06 11:06:45;;;;;;;;;28.00;25.80;;;;;36.71;8.94;101627.28;5055766;28;45739;-79
2022/03/06 11:09:16;;;;;;;;;29.60;28.20;;;;;36.45;9.33;101619.47;5055436;28;46546;-77
2022/03/06 11:11:48;;;;;;;;;27.40;23.20;;;;;36.26;8.79;101613.84;5057365;28;45330;-76
2022/03/06 11:14:14;;;;;;;;;28.00;25.00;;;;;35.35;9.55;101614.28;5057213;28;45451;-81